sensor_id;sensor_type;location;lat;lon;timestamp;pressure;altitude;pressure_sealevel;temperature;humidity
48041;BME280;33815;48.386;11.738;2022-07-23T00:01:21;96530.88;;;20.88;88.97
48041;BME280;33815;48.386;11.738;2022-07-23T00:03:47;96534.94;;;20.91;90.35
48041;BME280;33815;48.386;11.738;2022-07-23T00:06:12;96532.13;;;20.85;89.08
48041;BME280;33815;48.386;11.738;2022-07-23T00:08:38;96526.81;;;20.85;90.04
48041;BME280;33815;48.386;11.738;2022-07-23T00:11:03;96535.00;;;20.84;87.88
48041;BME280;33815;48.386;11.738;2022-07-23T00:13:28;96526.81;;;20.85;89.09
48041;BME280;33815;48.386;11.738;2022-07-23T00:15:54;96531.75;;;20.82;88.37
48041;BME280;33815;48.386;11.738;2022-07-23T00:18:20;96528.50;;;20.80;85.42
48041;BME280;33815;48.386;11.738;2022-07-23T00:20:45;96517.41;;;20.90;86.92
48041;BME280;33815;48.386;11.738;2022-07-23T00:23:10;96518.44;;;20.88;89.90
48041;BME280;33815;48.386;11.738;2022-07-23T00:25:36;96516.66;;;20.82;91.05
48041;BME280;33815;48.386;11.738;2022-07-23T00:28:01;96507.22;;;20.68;91.67
48041;BME280;33815;48.386;11.738;2022-07-23T00:30:27;96526.97;;;20.65;91.70
48041;BME280;33815;48.386;11.738;2022-07-23T00:32:56;96533.72;;;20.61;94.77
48041;BME280;33815;48.386;11.738;2022-07-23T00:35:24;96529.53;;;20.47;95.11
48041;BME280;33815;48.386;11.738;2022-07-23T00:37:50;96526.53;;;20.36;94.34
48041;BME280;33815;48.386;11.738;2022-07-23T00:40:15;96531.78;;;20.43;94.09
48041;BME280;33815;48.386;11.738;2022-07-23T00:42:41;96518.66;;;20.30;94.68
48041;BME280;33815;48.386;11.738;2022-07-23T00:45:07;96539.19;;;20.34;94.62
48041;BME280;33815;48.386;11.738;2022-07-23T00:47:32;96523.75;;;20.31;94.93
48041;BME280;33815;48.386;11.738;2022-07-23T00:49:58;96504.06;;;20.20;93.33
48041;BME280;33815;48.386;11.738;2022-07-23T00:52:23;96519.25;;;20.32;93.97
48041;BME280;33815;48.386;11.738;2022-07-23T00:54:49;96506.88;;;20.26;93.13
48041;BME280;33815;48.386;11.738;2022-07-23T00:57:15;96509.91;;;20.29;93.08
48041;BME280;33815;48.386;11.738;2022-07-23T00:59:40;96515.19;;;20.29;92.12
48041;BME280;33815;48.386;11.738;2022-07-23T01:02:06;96508.19;;;20.42;90.88
48041;BME280;33815;48.386;11.738;2022-07-23T01:04:31;96508.94;;;20.49;89.97
48041;BME280;33815;48.386;11.738;2022-07-23T01:06:57;96515.66;;;20.51;89.49
48041;BME280;33815;48.386;11.738;2022-07-23T01:09:22;96515.91;;;20.43;91.00
48041;BME280;33815;48.386;11.738;2022-07-23T01:11:47;96501.47;;;20.39;90.02
48041;BME280;33815;48.386;11.738;2022-07-23T01:14:15;96517.06;;;20.54;87.90
48041;BME280;33815;48.386;11.738;2022-07-23T01:16:41;96529.00;;;20.63;86.55
48041;BME280;33815;48.386;11.738;2022-07-23T01:19:08;96542.47;;;20.62;87.29
48041;BME280;33815;48.386;11.738;2022-07-23T01:21:39;96559.16;;;20.62;86.09
48041;BME280;33815;48.386;11.738;2022-07-23T01:24:06;96593.44;;;21.14;82.22
48041;BME280;33815;48.386;11.738;2022-07-23T01:26:31;96583.59;;;21.65;79.95
48041;BME280;33815;48.386;11.738;2022-07-23T01:28:56;96594.06;;;21.97;78.30
48041;BME280;33815;48.386;11.738;2022-07-23T01:31:22;96613.75;;;22.08;76.70
48041;BME280;33815;48.386;11.738;2022-07-23T01:33:48;96614.38;;;22.22;74.32
48041;BME280;33815;48.386;11.738;2022-07-23T01:36:13;96620.56;;;22.16;71.49
48041;BME280;33815;48.386;11.738;2022-07-23T01:38:38;96645.78;;;22.25;67.46
48041;BME280;33815;48.386;11.738;2022-07-23T01:41:04;96669.47;;;22.27;65.96
48041;BME280;33815;48.386;11.738;2022-07-23T01:43:29;96688.69;;;22.03;65.95
48041;BME280;33815;48.386;11.738;2022-07-23T01:45:55;96698.72;;;22.01;64.89
48041;BME280;33815;48.386;11.738;2022-07-23T01:48:20;96693.03;;;21.79;64.58
48041;BME280;33815;48.386;11.738;2022-07-23T01:50:47;96704.03;;;21.83;65.40
48041;BME280;33815;48.386;11.738;2022-07-23T01:53:13;96693.09;;;21.72;65.24
48041;BME280;33815;48.386;11.738;2022-07-23T01:55:38;96694.03;;;21.60;66.59
48041;BME280;33815;48.386;11.738;2022-07-23T01:58:03;96679.88;;;21.41;67.04
48041;BME280;33815;48.386;11.738;2022-07-23T02:00:28;96688.50;;;21.29;68.42
48041;BME280;33815;48.386;11.738;2022-07-23T02:02:54;96688.22;;;21.12;70.39
48041;BME280;33815;48.386;11.738;2022-07-23T02:05:19;96691.34;;;21.02;72.72
48041;BME280;33815;48.386;11.738;2022-07-23T02:07:44;96689.50;;;20.64;76.07
48041;BME280;33815;48.386;11.738;2022-07-23T02:10:09;96693.16;;;20.18;82.03
48041;BME280;33815;48.386;11.738;2022-07-23T02:12:35;96715.22;;;19.58;86.28
48041;BME280;33815;48.386;11.738;2022-07-23T02:15:00;96741.81;;;19.16;90.48
48041;BME280;33815;48.386;11.738;2022-07-23T02:17:26;96763.84;;;18.82;97.35
48041;BME280;33815;48.386;11.738;2022-07-23T02:19:51;96749.63;;;18.35;100.00
48041;BME280;33815;48.386;11.738;2022-07-23T02:22:16;96759.31;;;17.92;100.00
48041;BME280;33815;48.386;11.738;2022-07-23T02:24:41;96778.38;;;17.66;100.00
48041;BME280;33815;48.386;11.738;2022-07-23T02:27:06;96778.06;;;17.33;100.00
48041;BME280;33815;48.386;11.738;2022-07-23T02:29:32;96776.44;;;17.32;100.00
48041;BME280;33815;48.386;11.738;2022-07-23T02:31:57;96779.22;;;17.08;100.00
48041;BME280;33815;48.386;11.738;2022-07-23T02:34:22;96772.25;;;17.01;100.00
48041;BME280;33815;48.386;11.738;2022-07-23T02:36:47;96782.16;;;16.99;100.00
48041;BME280;33815;48.386;11.738;2022-07-23T02:39:13;96761.84;;;16.77;100.00
48041;BME280;33815;48.386;11.738;2022-07-23T02:41:39;96754.78;;;16.78;100.00
48041;BME280;33815;48.386;11.738;2022-07-23T02:44:04;96762.22;;;16.74;100.00
48041;BME280;33815;48.386;11.738;2022-07-23T02:46:30;96786.91;;;16.88;100.00
48041;BME280;33815;48.386;11.738;2022-07-23T02:48:55;96778.47;;;16.78;100.00
48041;BME280;33815;48.386;11.738;2022-07-23T02:51:20;96775.94;;;16.70;100.00
48041;BME280;33815;48.386;11.738;2022-07-23T02:53:45;96769.22;;;16.67;100.00
48041;BME280;33815;48.386;11.738;2022-07-23T02:56:11;96761.88;;;16.63;100.00
48041;BME280;33815;48.386;11.738;2022-07-23T02:58:36;96750.91;;;16.59;100.00
48041;BME280;33815;48.386;11.738;2022-07-23T03:01:02;96717.53;;;16.44;100.00
48041;BME280;33815;48.386;11.738;2022-07-23T03:03:27;96696.19;;;16.54;100.00
48041;BME280;33815;48.386;11.738;2022-07-23T03:05:52;96682.56;;;16.66;100.00
48041;BME280;33815;48.386;11.738;2022-07-23T03:08:17;96666.88;;;16.57;100.00
48041;BME280;33815;48.386;11.738;2022-07-23T03:10:43;96671.72;;;16.54;100.00
48041;BME280;33815;48.386;11.738;2022-07-23T03:13:08;96678.78;;;16.53;100.00
48041;BME280;33815;48.386;11.738;2022-07-23T03:15:33;96666.38;;;16.47;100.00
48041;BME280;33815;48.386;11.738;2022-07-23T03:17:58;96662.19;;;16.53;100.00
48041;BME280;33815;48.386;11.738;2022-07-23T03:20:24;96661.81;;;16.56;100.00
48041;BME280;33815;48.386;11.738;2022-07-23T03:22:49;96663.88;;;16.60;100.00
48041;BME280;33815;48.386;11.738;2022-07-23T03:25:14;96683.13;;;16.61;100.00
48041;BME280;33815;48.386;11.738;2022-07-23T03:27:39;96675.22;;;16.61;100.00
48041;BME280;33815;48.386;11.738;2022-07-23T03:30:05;96654.91;;;16.55;100.00
48041;BME280;33815;48.386;11.738;2022-07-23T03:32:31;96627.91;;;16.46;100.00
48041;BME280;33815;48.386;11.738;2022-07-23T03:34:56;96631.19;;;16.48;100.00
48041;BME280;33815;48.386;11.738;2022-07-23T03:37:22;96623.69;;;16.67;100.00
48041;BME280;33815;48.386;11.738;2022-07-23T03:39:47;96622.31;;;16.71;100.00
48041;BME280;33815;48.386;11.738;2022-07-23T03:42:12;96608.88;;;16.66;100.00
48041;BME280;33815;48.386;11.738;2022-07-23T03:44:38;96634.00;;;16.68;100.00
48041;BME280;33815;48.386;11.738;2022-07-23T03:47:04;96642.97;;;16.74;100.00
48041;BME280;33815;48.386;11.738;2022-07-23T03:49:30;96623.28;;;16.70;100.00
48041;BME280;33815;48.386;11.738;2022-07-23T03:51:55;96621.44;;;16.64;100.00
48041;BME280;33815;48.386;11.738;2022-07-23T03:54:20;96605.94;;;16.54;100.00
48041;BME280;33815;48.386;11.738;2022-07-23T03:56:46;96618.03;;;16.70;100.00
48041;BME280;33815;48.386;11.738;2022-07-23T03:59:11;96621.66;;;16.69;100.00
48041;BME280;33815;48.386;11.738;2022-07-23T04:01:36;96619.78;;;16.63;100.00
48041;BME280;33815;48.386;11.738;2022-07-23T04:04:02;96632.00;;;16.70;100.00
48041;BME280;33815;48.386;11.738;2022-07-23T04:06:28;96624.56;;;16.74;100.00
48041;BME280;33815;48.386;11.738;2022-07-23T04:08:53;96599.47;;;16.56;100.00
48041;BME280;33815;48.386;11.738;2022-07-23T04:11:19;96622.03;;;16.66;100.00
48041;BME280;33815;48.386;11.738;2022-07-23T04:13:44;96623.78;;;16.58;100.00
48041;BME280;33815;48.386;11.738;2022-07-23T04:16:09;96603.97;;;16.41;100.00
48041;BME280;33815;48.386;11.738;2022-07-23T04:18:35;96597.53;;;16.43;100.00
48041;BME280;33815;48.386;11.738;2022-07-23T04:21:00;96606.00;;;16.39;100.00
48041;BME280;33815;48.386;11.738;2022-07-23T04:23:25;96612.88;;;16.40;100.00
48041;BME280;33815;48.386;11.738;2022-07-23T04:25:50;96618.44;;;16.30;100.00
48041;BME280;33815;48.386;11.738;2022-07-23T04:28:16;96625.38;;;16.38;100.00
48041;BME280;33815;48.386;11.738;2022-07-23T04:30:41;96624.03;;;16.42;100.00
48041;BME280;33815;48.386;11.738;2022-07-23T04:33:06;96624.78;;;16.36;100.00
48041;BME280;33815;48.386;11.738;2022-07-23T04:35:32;96621.75;;;16.39;100.00
48041;BME280;33815;48.386;11.738;2022-07-23T04:37:58;96627.34;;;16.51;100.00
48041;BME280;33815;48.386;11.738;2022-07-23T04:40:23;96614.56;;;16.48;100.00
48041;BME280;33815;48.386;11.738;2022-07-23T04:42:48;96619.78;;;16.63;100.00
48041;BME280;33815;48.386;11.738;2022-07-23T04:45:14;96616.97;;;16.64;100.00
48041;BME280;33815;48.386;11.738;2022-07-23T04:47:39;96602.09;;;16.56;100.00
48041;BME280;33815;48.386;11.738;2022-07-23T04:50:04;96632.81;;;16.71;100.00
48041;BME280;33815;48.386;11.738;2022-07-23T04:52:30;96621.72;;;16.75;100.00
48041;BME280;33815;48.386;11.738;2022-07-23T04:54:55;96622.91;;;16.73;100.00
48041;BME280;33815;48.386;11.738;2022-07-23T04:57:20;96629.31;;;16.85;100.00
48041;BME280;33815;48.386;11.738;2022-07-23T04:59:45;96620.41;;;16.86;100.00
48041;BME280;33815;48.386;11.738;2022-07-23T05:02:11;96620.13;;;16.96;100.00
48041;BME280;33815;48.386;11.738;2022-07-23T05:04:36;96609.41;;;16.98;100.00
48041;BME280;33815;48.386;11.738;2022-07-23T05:07:01;96606.97;;;16.96;100.00
48041;BME280;33815;48.386;11.738;2022-07-23T05:09:26;96595.41;;;16.97;100.00
48041;BME280;33815;48.386;11.738;2022-07-23T05:11:52;96598.78;;;17.12;100.00
48041;BME280;33815;48.386;11.738;2022-07-23T05:14:17;96584.19;;;17.10;100.00
48041;BME280;33815;48.386;11.738;2022-07-23T05:16:42;96590.31;;;17.17;100.00
48041;BME280;33815;48.386;11.738;2022-07-23T05:19:08;96592.25;;;17.08;100.00
48041;BME280;33815;48.386;11.738;2022-07-23T05:21:33;96598.44;;;17.22;100.00
48041;BME280;33815;48.386;11.738;2022-07-23T05:23:59;96594.72;;;17.38;100.00
48041;BME280;33815;48.386;11.738;2022-07-23T05:26:24;96589.34;;;17.25;100.00
48041;BME280;33815;48.386;11.738;2022-07-23T05:28:50;96608.63;;;17.25;100.00
48041;BME280;33815;48.386;11.738;2022-07-23T05:31:15;96611.38;;;17.17;100.00
48041;BME280;33815;48.386;11.738;2022-07-23T05:33:40;96619.03;;;17.12;100.00
48041;BME280;33815;48.386;11.738;2022-07-23T05:36:06;96617.84;;;17.15;100.00
48041;BME280;33815;48.386;11.738;2022-07-23T05:38:32;96615.47;;;17.26;100.00
48041;BME280;33815;48.386;11.738;2022-07-23T05:40:57;96618.81;;;17.35;100.00
48041;BME280;33815;48.386;11.738;2022-07-23T05:43:23;96613.97;;;17.39;100.00
48041;BME280;33815;48.386;11.738;2022-07-23T05:45:49;96615.59;;;17.40;100.00
48041;BME280;33815;48.386;11.738;2022-07-23T05:48:14;96621.59;;;17.34;100.00
48041;BME280;33815;48.386;11.738;2022-07-23T05:50:39;96639.09;;;17.41;100.00
48041;BME280;33815;48.386;11.738;2022-07-23T05:53:05;96630.34;;;17.34;100.00
48041;BME280;33815;48.386;11.738;2022-07-23T05:55:30;96638.78;;;17.51;100.00
48041;BME280;33815;48.386;11.738;2022-07-23T05:57:57;96630.63;;;17.46;100.00
48041;BME280;33815;48.386;11.738;2022-07-23T06:00:23;96625.16;;;17.47;100.00
48041;BME280;33815;48.386;11.738;2022-07-23T06:02:48;96641.47;;;17.58;100.00
48041;BME280;33815;48.386;11.738;2022-07-23T06:05:14;96632.13;;;17.55;100.00
48041;BME280;33815;48.386;11.738;2022-07-23T06:07:39;96644.09;;;17.64;100.00
48041;BME280;33815;48.386;11.738;2022-07-23T06:10:05;96648.09;;;17.82;100.00
48041;BME280;33815;48.386;11.738;2022-07-23T06:12:30;96645.06;;;17.85;100.00
48041;BME280;33815;48.386;11.738;2022-07-23T06:14:56;96639.56;;;17.87;100.00
48041;BME280;33815;48.386;11.738;2022-07-23T06:17:21;96635.75;;;17.89;100.00
48041;BME280;33815;48.386;11.738;2022-07-23T06:19:47;96643.75;;;18.03;100.00
48041;BME280;33815;48.386;11.738;2022-07-23T06:22:12;96622.00;;;17.94;100.00
48041;BME280;33815;48.386;11.738;2022-07-23T06:24:37;96616.56;;;18.02;100.00
48041;BME280;33815;48.386;11.738;2022-07-23T06:27:03;96628.78;;;18.10;100.00
48041;BME280;33815;48.386;11.738;2022-07-23T06:29:28;96628.16;;;18.08;100.00
48041;BME280;33815;48.386;11.738;2022-07-23T06:31:54;96614.13;;;18.01;100.00
48041;BME280;33815;48.386;11.738;2022-07-23T06:34:19;96616.19;;;18.12;100.00
48041;BME280;33815;48.386;11.738;2022-07-23T06:36:44;96611.56;;;18.14;100.00
48041;BME280;33815;48.386;11.738;2022-07-23T06:39:10;96605.47;;;18.20;100.00
48041;BME280;33815;48.386;11.738;2022-07-23T06:41:35;96607.78;;;18.43;100.00
48041;BME280;33815;48.386;11.738;2022-07-23T06:44:00;96614.28;;;18.54;100.00
48041;BME280;33815;48.386;11.738;2022-07-23T06:46:26;96607.03;;;18.63;100.00
48041;BME280;33815;48.386;11.738;2022-07-23T06:48:51;96615.75;;;18.70;100.00
48041;BME280;33815;48.386;11.738;2022-07-23T06:51:16;96617.59;;;18.76;100.00
48041;BME280;33815;48.386;11.738;2022-07-23T06:53:42;96615.56;;;18.78;100.00
48041;BME280;33815;48.386;11.738;2022-07-23T06:56:07;96625.09;;;18.79;100.00
48041;BME280;33815;48.386;11.738;2022-07-23T06:58:32;96624.31;;;18.86;100.00
48041;BME280;33815;48.386;11.738;2022-07-23T07:00:58;96614.97;;;18.83;100.00
48041;BME280;33815;48.386;11.738;2022-07-23T07:03:23;96635.09;;;18.91;100.00
48041;BME280;33815;48.386;11.738;2022-07-23T07:05:48;96666.38;;;19.00;100.00
48041;BME280;33815;48.386;11.738;2022-07-23T07:08:15;96680.63;;;19.13;100.00
48041;BME280;33815;48.386;11.738;2022-07-23T07:10:40;96712.16;;;19.21;100.00
48041;BME280;33815;48.386;11.738;2022-07-23T07:13:05;96707.69;;;19.15;100.00
48041;BME280;33815;48.386;11.738;2022-07-23T07:15:31;96695.69;;;19.19;100.00
48041;BME280;33815;48.386;11.738;2022-07-23T07:17:56;96698.53;;;19.38;100.00
48041;BME280;33815;48.386;11.738;2022-07-23T07:20:21;96691.19;;;19.66;100.00
48041;BME280;33815;48.386;11.738;2022-07-23T07:22:47;96681.63;;;19.72;100.00
48041;BME280;33815;48.386;11.738;2022-07-23T07:25:12;96679.41;;;19.82;100.00
48041;BME280;33815;48.386;11.738;2022-07-23T07:27:37;96683.28;;;19.80;100.00
48041;BME280;33815;48.386;11.738;2022-07-23T07:30:04;96677.38;;;19.84;100.00
48041;BME280;33815;48.386;11.738;2022-07-23T07:32:30;96678.38;;;19.90;100.00
48041;BME280;33815;48.386;11.738;2022-07-23T07:34:57;96683.06;;;19.88;100.00
48041;BME280;33815;48.386;11.738;2022-07-23T07:37:22;96672.88;;;19.72;100.00
48041;BME280;33815;48.386;11.738;2022-07-23T07:39:47;96680.00;;;19.78;100.00
48041;BME280;33815;48.386;11.738;2022-07-23T07:42:13;96669.00;;;19.88;100.00
48041;BME280;33815;48.386;11.738;2022-07-23T07:44:38;96677.16;;;19.73;100.00
48041;BME280;33815;48.386;11.738;2022-07-23T07:47:03;96671.69;;;19.67;100.00
48041;BME280;33815;48.386;11.738;2022-07-23T07:49:29;96692.84;;;19.81;100.00
48041;BME280;33815;48.386;11.738;2022-07-23T07:51:54;96682.25;;;19.67;100.00
48041;BME280;33815;48.386;11.738;2022-07-23T07:54:19;96696.50;;;19.53;100.00
48041;BME280;33815;48.386;11.738;2022-07-23T07:56:44;96696.69;;;19.38;100.00
48041;BME280;33815;48.386;11.738;2022-07-23T07:59:10;96697.94;;;19.22;100.00
48041;BME280;33815;48.386;11.738;2022-07-23T08:01:36;96682.88;;;19.03;100.00
48041;BME280;33815;48.386;11.738;2022-07-23T08:04:02;96694.63;;;18.93;100.00
48041;BME280;33815;48.386;11.738;2022-07-23T08:06:27;96696.19;;;18.74;100.00
48041;BME280;33815;48.386;11.738;2022-07-23T08:08:53;96701.41;;;18.61;100.00
48041;BME280;33815;48.386;11.738;2022-07-23T08:11:18;96700.97;;;18.51;100.00
48041;BME280;33815;48.386;11.738;2022-07-23T08:13:43;96698.53;;;18.49;100.00
48041;BME280;33815;48.386;11.738;2022-07-23T08:16:10;96718.63;;;18.50;100.00
48041;BME280;33815;48.386;11.738;2022-07-23T08:18:35;96727.53;;;18.42;100.00
48041;BME280;33815;48.386;11.738;2022-07-23T08:21:00;96731.38;;;18.40;100.00
48041;BME280;33815;48.386;11.738;2022-07-23T08:23:26;96733.25;;;18.46;100.00
48041;BME280;33815;48.386;11.738;2022-07-23T08:25:52;96745.88;;;18.57;100.00
48041;BME280;33815;48.386;11.738;2022-07-23T08:28:17;96742.78;;;18.47;100.00
48041;BME280;33815;48.386;11.738;2022-07-23T08:30:45;96741.13;;;18.39;100.00
48041;BME280;33815;48.386;11.738;2022-07-23T08:33:15;96731.59;;;18.38;100.00
48041;BME280;33815;48.386;11.738;2022-07-23T08:35:48;96727.75;;;18.41;100.00
48041;BME280;33815;48.386;11.738;2022-07-23T08:38:17;96728.16;;;18.44;100.00
48041;BME280;33815;48.386;11.738;2022-07-23T08:40:47;96727.13;;;18.45;100.00
48041;BME280;33815;48.386;11.738;2022-07-23T08:43:15;96725.84;;;18.76;100.00
48041;BME280;33815;48.386;11.738;2022-07-23T08:45:43;96734.38;;;18.78;100.00
48041;BME280;33815;48.386;11.738;2022-07-23T08:48:14;96734.59;;;18.77;100.00
48041;BME280;33815;48.386;11.738;2022-07-23T08:50:44;96728.66;;;18.61;100.00
48041;BME280;33815;48.386;11.738;2022-07-23T08:53:10;96737.97;;;18.64;100.00
48041;BME280;33815;48.386;11.738;2022-07-23T08:55:36;96723.22;;;18.35;100.00
48041;BME280;33815;48.386;11.738;2022-07-23T08:58:01;96755.56;;;18.43;100.00
48041;BME280;33815;48.386;11.738;2022-07-23T09:00:27;96763.25;;;18.38;100.00
48041;BME280;33815;48.386;11.738;2022-07-23T09:02:53;96766.84;;;18.30;100.00
48041;BME280;33815;48.386;11.738;2022-07-23T09:05:19;96744.31;;;18.28;100.00
48041;BME280;33815;48.386;11.738;2022-07-23T09:10:50;96753.44;;;18.74;100.00
48041;BME280;33815;48.386;11.738;2022-07-23T09:13:36;96777.59;;;19.19;100.00
48041;BME280;33815;48.386;11.738;2022-07-23T09:21:11;96758.91;;;20.21;100.00
48041;BME280;33815;48.386;11.738;2022-07-23T09:23:42;96774.81;;;20.86;100.00
48041;BME280;33815;48.386;11.738;2022-07-23T09:26:18;96758.81;;;21.07;100.00
48041;BME280;33815;48.386;11.738;2022-07-23T09:28:51;96766.97;;;21.37;100.00
48041;BME280;33815;48.386;11.738;2022-07-23T09:31:17;96771.63;;;21.42;100.00
48041;BME280;33815;48.386;11.738;2022-07-23T09:33:43;96784.69;;;21.43;100.00
48041;BME280;33815;48.386;11.738;2022-07-23T09:36:08;96760.38;;;21.53;99.91
48041;BME280;33815;48.386;11.738;2022-07-23T09:38:34;96770.16;;;22.03;99.81
48041;BME280;33815;48.386;11.738;2022-07-23T09:41:10;96770.59;;;22.00;98.58
48041;BME280;33815;48.386;11.738;2022-07-23T09:43:35;96761.72;;;21.87;97.26
48041;BME280;33815;48.386;11.738;2022-07-23T09:46:24;96754.00;;;21.61;99.53
48041;BME280;33815;48.386;11.738;2022-07-23T09:48:54;96757.56;;;21.73;100.00
48041;BME280;33815;48.386;11.738;2022-07-23T09:51:22;96768.09;;;21.80;100.00
48041;BME280;33815;48.386;11.738;2022-07-23T09:54:01;96769.03;;;21.92;100.00
48041;BME280;33815;48.386;11.738;2022-07-23T09:56:27;96770.69;;;22.12;95.70
48041;BME280;33815;48.386;11.738;2022-07-23T09:58:53;96774.66;;;22.46;97.44
48041;BME280;33815;48.386;11.738;2022-07-23T10:01:38;96772.56;;;22.67;90.25
48041;BME280;33815;48.386;11.738;2022-07-23T10:04:03;96755.88;;;23.27;90.26
48041;BME280;33815;48.386;11.738;2022-07-23T10:06:29;96760.44;;;23.50;85.67
48041;BME280;33815;48.386;11.738;2022-07-23T10:08:57;96768.81;;;23.54;83.06
48041;BME280;33815;48.386;11.738;2022-07-23T10:11:23;96756.91;;;23.68;83.09
48041;BME280;33815;48.386;11.738;2022-07-23T10:13:49;96754.97;;;23.99;84.62
48041;BME280;33815;48.386;11.738;2022-07-23T10:16:20;96766.88;;;24.08;82.83
48041;BME280;33815;48.386;11.738;2022-07-23T10:18:47;96762.28;;;24.16;81.82
48041;BME280;33815;48.386;11.738;2022-07-23T10:21:19;96753.56;;;24.44;79.28
48041;BME280;33815;48.386;11.738;2022-07-23T10:23:57;96746.38;;;24.85;78.30
48041;BME280;33815;48.386;11.738;2022-07-23T10:26:46;96738.38;;;24.85;72.62
48041;BME280;33815;48.386;11.738;2022-07-23T10:32:03;96743.31;;;25.51;71.32
48041;BME280;33815;48.386;11.738;2022-07-23T10:37:11;96736.59;;;25.99;70.09
48041;BME280;33815;48.386;11.738;2022-07-23T10:39:37;96737.28;;;26.29;74.56
48041;BME280;33815;48.386;11.738;2022-07-23T10:42:24;96735.38;;;26.07;66.16
48041;BME280;33815;48.386;11.738;2022-07-23T10:44:58;96725.19;;;26.04;71.54
48041;BME280;33815;48.386;11.738;2022-07-23T10:47:29;96718.94;;;26.38;68.50
48041;BME280;33815;48.386;11.738;2022-07-23T10:50:27;96709.13;;;26.21;66.23
48041;BME280;33815;48.386;11.738;2022-07-23T10:53:13;96711.47;;;26.40;65.73
48041;BME280;33815;48.386;11.738;2022-07-23T10:55:43;96694.47;;;26.46;65.25
48041;BME280;33815;48.386;11.738;2022-07-23T10:58:08;96693.81;;;26.61;65.66
48041;BME280;33815;48.386;11.738;2022-07-23T11:00:35;96705.22;;;26.73;68.75
48041;BME280;33815;48.386;11.738;2022-07-23T11:03:06;96707.53;;;26.92;64.49
48041;BME280;33815;48.386;11.738;2022-07-23T11:05:47;96699.13;;;27.05;66.85
48041;BME280;33815;48.386;11.738;2022-07-23T11:08:19;96697.34;;;26.89;64.53
48041;BME280;33815;48.386;11.738;2022-07-23T11:10:49;96696.94;;;26.75;65.09
48041;BME280;33815;48.386;11.738;2022-07-23T11:26:58;96689.66;;;27.52;62.88
48041;BME280;33815;48.386;11.738;2022-07-23T11:32:07;96684.78;;;27.86;61.76
48041;BME280;33815;48.386;11.738;2022-07-23T11:37:00;96685.97;;;27.31;56.21
48041;BME280;33815;48.386;11.738;2022-07-23T11:39:27;96668.38;;;27.35;57.60
48041;BME280;33815;48.386;11.738;2022-07-23T11:41:53;96673.25;;;27.81;58.59
48041;BME280;33815;48.386;11.738;2022-07-23T11:44:30;96676.50;;;27.88;55.35
48041;BME280;33815;48.386;11.738;2022-07-23T11:46:57;96673.56;;;27.47;57.38
48041;BME280;33815;48.386;11.738;2022-07-23T11:49:23;96659.34;;;27.41;57.27
48041;BME280;33815;48.386;11.738;2022-07-23T11:54:28;96662.84;;;27.14;56.47
48041;BME280;33815;48.386;11.738;2022-07-23T11:57:00;96652.38;;;27.13;56.26
48041;BME280;33815;48.386;11.738;2022-07-23T11:59:33;96666.91;;;27.55;54.33
48041;BME280;33815;48.386;11.738;2022-07-23T12:02:03;96660.00;;;28.07;54.48
48041;BME280;33815;48.386;11.738;2022-07-23T12:04:39;96660.41;;;28.36;52.74
48041;BME280;33815;48.386;11.738;2022-07-23T12:07:22;96640.34;;;28.44;51.80
48041;BME280;33815;48.386;11.738;2022-07-23T12:09:48;96646.13;;;28.15;49.98
48041;BME280;33815;48.386;11.738;2022-07-23T12:12:13;96649.56;;;28.05;51.06
48041;BME280;33815;48.386;11.738;2022-07-23T12:14:55;96655.97;;;27.99;51.45
48041;BME280;33815;48.386;11.738;2022-07-23T12:17:22;96637.53;;;28.08;53.62
48041;BME280;33815;48.386;11.738;2022-07-23T12:19:51;96637.94;;;28.42;49.69
48041;BME280;33815;48.386;11.738;2022-07-23T12:22:17;96634.75;;;28.61;49.77
48041;BME280;33815;48.386;11.738;2022-07-23T12:24:53;96624.91;;;28.87;48.77
48041;BME280;33815;48.386;11.738;2022-07-23T12:27:22;96629.22;;;29.45;48.80
48041;BME280;33815;48.386;11.738;2022-07-23T12:29:48;96621.97;;;29.04;47.22
48041;BME280;33815;48.386;11.738;2022-07-23T12:32:25;96629.75;;;29.31;47.61
48041;BME280;33815;48.386;11.738;2022-07-23T12:35:06;96630.59;;;29.32;46.08
48041;BME280;33815;48.386;11.738;2022-07-23T12:37:33;96634.31;;;29.15;47.18
48041;BME280;33815;48.386;11.738;2022-07-23T12:40:19;96630.56;;;29.47;46.31
48041;BME280;33815;48.386;11.738;2022-07-23T12:42:45;96630.56;;;29.42;46.70
48041;BME280;33815;48.386;11.738;2022-07-23T12:45:11;96624.09;;;29.59;45.77
48041;BME280;33815;48.386;11.738;2022-07-23T12:48:04;96630.94;;;30.11;48.03
48041;BME280;33815;48.386;11.738;2022-07-23T12:53:24;96624.75;;;30.16;46.71
48041;BME280;33815;48.386;11.738;2022-07-23T12:55:57;96625.34;;;30.63;44.57
48041;BME280;33815;48.386;11.738;2022-07-23T12:58:24;96622.97;;;30.56;46.07
48041;BME280;33815;48.386;11.738;2022-07-23T13:05:54;96634.19;;;30.13;44.95
48041;BME280;33815;48.386;11.738;2022-07-23T13:08:20;96635.59;;;29.85;46.85
48041;BME280;33815;48.386;11.738;2022-07-23T13:10:46;96646.34;;;29.95;46.55
48041;BME280;33815;48.386;11.738;2022-07-23T13:13:20;96643.41;;;29.61;47.84
48041;BME280;33815;48.386;11.738;2022-07-23T13:15:45;96646.09;;;29.61;48.19
48041;BME280;33815;48.386;11.738;2022-07-23T13:18:11;96639.38;;;29.63;47.12
48041;BME280;33815;48.386;11.738;2022-07-23T13:20:36;96639.13;;;29.03;49.44
48041;BME280;33815;48.386;11.738;2022-07-23T13:23:03;96641.25;;;28.85;50.15
48041;BME280;33815;48.386;11.738;2022-07-23T13:25:29;96651.63;;;28.61;50.14
48041;BME280;33815;48.386;11.738;2022-07-23T13:27:54;96654.00;;;28.42;51.21